Time;durP1;ratioP1;P1;durP2;ratioP2;P2;SDS_P1;SDS_P2;PMS_P1;PMS_P2;Temp;Humidity;BMP_temperature;BMP_pressure;BME280_temperature;BME280_humidity;BME280_pressure;Samples;Min_cycle;Max_cycle;Signal;HPM_P1;HPM_P2
2021/12/29 00:00:30;;;;;;;6.71;1.16;;;;;;;8.28;94.69;98155.81;1986032;79;33270;-72
2021/12/29 00:03:33;;;;;;;6.47;1.05;;;;;;;8.29;94.58;98167.00;1987802;81;20359;-73
2021/12/29 00:06:35;;;;;;;6.66;1.13;;;;;;;8.29;94.49;98169.59;1988119;81;20336;-73
2021/12/29 00:09:40;;;;;;;7.32;1.06;;;;;;;8.29;94.42;98183.38;1988044;81;20339;-73
2021/12/29 00:12:47;;;;;;;8.02;1.46;;;;;;;8.29;94.52;98177.38;1987627;81;20331;-73
2021/12/29 00:15:57;;;;;;;5.84;0.91;;;;;;;8.28;94.38;98194.59;1986613;79;22260;-74
2021/12/29 00:18:59;;;;;;;2.97;0.77;;;;;;;8.30;94.10;98192.84;1987867;81;21540;-72
2021/12/29 00:22:02;;;;;;;5.71;1.60;;;;;;;8.31;93.83;98198.88;1988204;81;20339;-73
2021/12/29 00:25:06;;;;;;;8.63;0.98;;;;;;;8.31;93.74;98209.22;1987198;81;20821;-73
2021/12/29 00:28:08;;;;;;;4.31;0.88;;;;;;;8.28;93.77;98210.13;1987225;81;20355;-73
2021/12/29 00:31:11;;;;;;;6.11;1.00;;;;;;;8.30;93.56;98210.09;1986560;79;22902;-73
2021/12/29 00:34:13;;;;;;;6.70;0.90;;;;;;;8.29;93.57;98209.25;2038194;71;20336;-73
2021/12/29 00:37:16;;;;;;;4.45;0.80;;;;;;;8.29;93.54;98214.41;1981284;81;20366;-74
2021/12/29 00:40:19;;;;;;;9.77;1.24;;;;;;;8.29;93.60;98223.91;1980839;81;20352;-74
2021/12/29 00:43:21;;;;;;;7.47;1.05;;;;;;;8.27;93.53;98229.09;1981659;81;21313;-72
2021/12/29 00:46:24;;;;;;;7.09;1.06;;;;;;;8.30;93.48;98230.78;1980497;79;23590;-73
2021/12/29 00:49:32;;;;;;;6.25;1.14;;;;;;;8.29;93.31;98237.69;1982013;81;20355;-73
2021/12/29 00:52:36;;;;;;;5.22;0.90;;;;;;;8.30;92.68;98241.13;1981713;81;20998;-74
2021/12/29 00:55:39;;;;;;;6.25;0.80;;;;;;;8.33;92.35;98254.00;1981612;81;20345;-73
2021/12/29 00:58:42;;;;;;;4.89;0.90;;;;;;;8.35;92.14;98252.28;1981507;81;21358;-73
2021/12/29 01:01:45;;;;;;;5.96;1.42;;;;;;;8.35;92.11;98266.06;1979737;79;22904;-73
2021/12/29 01:04:48;;;;;;;3.56;0.76;;;;;;;8.37;91.92;98268.63;1982487;81;20364;-73
2021/12/29 01:07:50;;;;;;;7.79;1.04;;;;;;;8.37;91.46;98279.84;1982686;81;20435;-74
2021/12/29 01:10:53;;;;;;;7.36;0.80;;;;;;;8.41;91.24;98275.47;1979125;81;20341;-74
2021/12/29 01:13:56;;;;;;;5.47;0.96;;;;;;;8.40;91.15;98277.19;1982906;81;20833;-73
2021/12/29 01:16:58;;;;;;;6.20;0.73;;;;;;;8.38;91.25;98276.38;1980667;79;22341;-73
2021/12/29 01:20:02;;;;;;;5.80;0.84;;;;;;;8.41;91.16;98278.91;1982855;81;20381;-75
2021/12/29 01:23:04;;;;;;;7.24;1.30;;;;;;;8.41;91.13;98286.69;1982967;81;21201;-74
2021/12/29 01:26:07;;;;;;;6.31;0.88;;;;;;;8.43;91.25;98302.16;1982339;81;20376;-73
2021/12/29 01:29:11;;;;;;;5.74;0.84;;;;;;;8.41;91.45;98297.03;1982856;81;20362;-73
2021/12/29 01:32:14;;;;;;;5.68;0.80;;;;;;;8.40;92.02;98313.41;1981623;79;21957;-73
2021/12/29 01:35:17;;;;;;;4.72;1.08;;;;;;;8.39;92.23;98323.78;1982251;81;20324;-73
2021/12/29 01:38:20;;;;;;;3.54;0.80;;;;;;;8.37;92.57;98334.16;1982896;81;20491;-73
2021/12/29 01:41:22;;;;;;;10.50;1.20;;;;;;;8.37;92.66;98348.81;1982483;81;20328;-73
2021/12/29 01:45:22;;;;;;;8.25;1.25;;;;;;;8.43;92.67;98353.91;2067697;76;25377;-73
2021/12/29 01:48:25;;;;;;;3.67;0.71;;;;;;;8.36;92.90;98360.91;2042496;79;21209;-74
2021/12/29 01:51:30;;;;;;;3.49;0.65;;;;;;;8.37;93.06;98361.75;2046365;79;20347;-75
2021/12/29 01:54:35;;;;;;;5.61;0.98;;;;;;;8.34;93.30;98361.78;2042334;79;21098;-75
2021/12/29 01:57:38;;;;;;;3.54;0.50;;;;;;;8.36;93.40;98358.31;2042798;79;20335;-73
2021/12/29 02:00:41;;;;;;;5.55;0.95;;;;;;;8.33;93.34;98363.50;2042916;76;21835;-74
2021/12/29 02:03:43;;;;;;;3.76;0.70;;;;;;;8.35;93.11;98355.75;2049214;79;20434;-73
2021/12/29 02:06:46;;;;;;;1.75;0.60;;;;;;;8.37;92.97;98367.78;2047883;79;20330;-73
2021/12/29 02:09:49;;;;;;;2.78;0.46;;;;;;;8.36;92.68;98373.81;2048505;79;20407;-74
2021/12/29 02:12:52;;;;;;;3.41;0.52;;;;;;;8.36;92.15;98380.72;2048455;79;20324;-73
2021/12/29 02:15:54;;;;;;;1.66;0.47;;;;;;;8.37;91.98;98391.06;2046661;79;21012;-74
2021/12/29 02:19:00;;;;;;;4.21;0.59;;;;;;;8.39;91.56;98397.06;2052076;76;29620;-73
2021/12/29 02:22:09;;;;;;;2.21;0.40;;;;;;;8.39;91.54;98402.25;2054428;78;21729;-74
2021/12/29 02:28:33;;;;;;;1.69;0.40;;;;;;;8.41;90.81;98416.00;2053804;78;20180;-74
2021/12/29 02:31:36;;;;;;;2.25;0.40;;;;;;;8.42;90.56;98433.22;2049267;76;20454;-74
2021/12/29 02:34:40;;;;;;;3.06;0.54;;;;;;;8.42;90.35;98433.22;2048165;79;20837;-75
2021/12/29 02:37:43;;;;;;;1.71;0.30;;;;;;;8.42;89.83;98430.66;2048419;79;20330;-74
2021/12/29 02:40:49;;;;;;;1.65;0.40;;;;;;;8.45;89.65;98419.44;2047737;79;20920;-74
2021/12/29 02:43:59;;;;;;;4.68;0.57;;;;;;;8.45;89.99;98422.88;2047538;79;20342;-73
2021/12/29 02:47:02;;;;;;;2.33;0.40;;;;;;;8.43;90.05;98415.97;2050339;75;22398;-74
2021/12/29 02:50:06;;;;;;;5.82;0.49;;;;;;;8.41;90.08;98434.09;2052990;78;20458;-73
2021/12/29 02:53:09;;;;;;;1.16;0.46;;;;;;;8.39;90.35;98435.00;2052102;78;20314;-74
2021/12/29 02:56:12;;;;;;;1.64;0.50;;;;;;;8.39;90.62;98445.34;2049415;78;20341;-74
2021/12/29 02:59:16;;;;;;;2.94;0.44;;;;;;;8.38;90.77;98448.81;2047691;79;20302;-74
2021/12/29 03:02:20;;;;;;;2.63;0.60;;;;;;;8.36;90.91;98445.38;2044402;76;21154;-74
2021/12/29 03:05:26;;;;;;;3.54;0.40;;;;;;;8.37;90.91;98440.19;2045566;79;20323;-74
2021/12/29 03:08:29;;;;;;;2.20;0.50;;;;;;;8.37;90.89;98453.13;2046313;79;20330;-74
2021/12/29 03:11:33;;;;;;;2.38;0.41;;;;;;;8.38;90.87;98452.25;2046137;79;20323;-73
2021/12/29 03:14:35;;;;;;;3.05;0.40;;;;;;;8.39;90.76;98464.31;2045923;79;20380;-74
2021/12/29 03:17:38;;;;;;;3.72;0.91;;;;;;;8.39;90.99;98466.91;2049390;76;22337;-74
2021/12/29 03:20:41;;;;;;;1.86;0.32;;;;;;;8.37;91.08;98468.66;2052092;79;20450;-74
2021/12/29 03:23:45;;;;;;;4.22;0.56;;;;;;;8.39;91.31;98474.66;2051986;79;20318;-74
2021/12/29 03:26:48;;;;;;;2.26;0.36;;;;;;;8.38;91.56;98479.84;2051602;79;21190;-74
2021/12/29 03:29:50;;;;;;;1.96;0.30;;;;;;;8.37;91.94;98488.50;2051203;79;20411;-74
2021/12/29 03:33:03;;;;;;;1.98;0.40;;;;;;;8.35;92.38;98490.25;2044757;76;21695;-74
2021/12/29 03:36:06;;;;;;;1.23;0.40;;;;;;;8.34;92.79;98485.94;2046278;79;20407;-74
2021/12/29 03:39:10;;;;;;;2.56;0.30;;;;;;;8.30;93.26;98473.88;2045217;79;20335;-74
2021/12/29 03:42:14;;;;;;;1.31;0.34;;;;;;;8.30;93.45;98479.06;2045467;79;20303;-74
2021/12/29 03:45:16;;;;;;;1.56;0.32;;;;;;;8.27;93.65;98472.19;2043588;79;23679;-74
2021/12/29 03:48:21;;;;;;;1.29;0.30;;;;;;;8.26;93.68;98472.19;2046433;79;20359;-74
2021/12/29 03:51:24;;;;;;;2.46;0.89;;;;;;;8.27;93.88;98481.69;2041855;79;20938;-74
2021/12/29 03:54:27;;;;;;;2.42;0.30;;;;;;;8.23;93.93;98475.66;2045907;79;20339;-74
2021/12/29 03:57:29;;;;;;;1.60;0.30;;;;;;;8.24;94.10;98486.84;2046317;79;21343;-74
2021/12/29 04:00:32;;;;;;;1.86;0.30;;;;;;;8.24;94.08;98487.72;2043969;76;22333;-74
2021/12/29 04:03:35;;;;;;;3.44;0.61;;;;;;;8.24;94.19;98490.28;2045974;79;20328;-73
2021/12/29 04:06:38;;;;;;;1.31;0.30;;;;;;;8.21;94.22;98484.31;2045336;79;20329;-74
2021/12/29 04:09:41;;;;;;;0.85;0.20;;;;;;;8.19;94.35;98494.66;2044790;79;20451;-74
2021/12/29 04:12:43;;;;;;;1.60;0.25;;;;;;;8.16;94.47;98500.72;2044676;79;21042;-73
2021/12/29 04:15:46;;;;;;;2.94;0.30;;;;;;;8.18;94.63;98509.31;2043735;76;22139;-75
2021/12/29 04:22:10;;;;;;;1.88;0.30;;;;;;;8.15;94.75;98509.34;2045763;79;21175;-73
2021/12/29 04:25:13;;;;;;;2.17;0.20;;;;;;;8.17;94.71;98509.34;2045364;79;20315;-75
2021/12/29 04:28:20;;;;;;;1.98;0.38;;;;;;;8.19;94.74;98512.75;2045654;79;20399;-73
2021/12/29 04:31:22;;;;;;;0.59;0.20;;;;;;;8.18;94.64;98511.91;2047247;76;20607;-74
2021/12/29 04:34:25;;;;;;;1.05;0.73;;;;;;;8.18;94.47;98516.22;2050474;79;20334;-73
2021/12/29 04:37:28;;;;;;;0.40;0.20;;;;;;;8.20;94.57;98527.41;2051184;79;20338;-73
2021/12/29 04:40:30;;;;;;;1.65;0.43;;;;;;;8.18;94.67;98514.50;2050800;79;20378;-73
2021/12/29 04:43:33;;;;;;;0.90;0.30;;;;;;;8.17;94.88;98525.72;2048658;79;20332;-74
2021/12/29 04:46:38;;;;;;;1.51;0.30;;;;;;;8.19;95.03;98525.69;2044059;76;21091;-73
2021/12/29 04:49:43;;;;;;;1.23;0.30;;;;;;;8.16;95.20;98529.16;2045135;79;20438;-74
2021/12/29 04:52:45;;;;;;;1.63;0.30;;;;;;;8.18;95.46;98530.00;2045259;79;20415;-73
2021/12/29 04:55:49;;;;;;;2.11;0.30;;;;;;;8.19;95.60;98536.03;2045482;79;20414;-74
2021/12/29 04:58:52;;;;;;;2.08;0.30;;;;;;;8.20;95.74;98530.00;2046095;79;20861;-73
2021/12/29 05:01:55;;;;;;;1.91;0.30;;;;;;;8.20;95.67;98535.16;2044167;76;22345;-74
2021/12/29 05:05:02;;;;;;;1.59;0.40;;;;;;;8.20;95.91;98553.25;2045483;79;20906;-73
2021/12/29 05:11:26;;;;;;;5.43;0.54;;;;;;;8.18;96.14;98553.28;2045788;79;20307;-74
2021/12/29 05:14:29;;;;;;;5.21;0.60;;;;;;;8.19;96.25;98560.16;2045384;79;20371;-73
2021/12/29 05:17:31;;;;;;;5.36;0.90;;;;;;;8.17;96.23;98543.81;2038926;76;21447;-74
2021/12/29 05:20:34;;;;;;;7.13;0.85;;;;;;;8.18;96.26;98544.66;2040162;79;20312;-73
2021/12/29 05:23:37;;;;;;;6.09;0.81;;;;;;;8.16;96.24;98552.44;2040058;79;20335;-73
2021/12/29 05:26:40;;;;;;;9.57;1.55;;;;;;;8.17;96.00;98561.06;2040068;79;20324;-73
2021/12/29 05:29:42;;;;;;;6.69;1.30;;;;;;;8.15;95.82;98557.63;2039807;79;20324;-73
2021/12/29 05:32:45;;;;;;;7.90;0.99;;;;;;;8.14;95.71;98545.56;2037305;76;26360;-74
2021/12/29 05:35:48;;;;;;;10.94;1.26;;;;;;;8.13;95.62;98541.28;2040232;79;20316;-73
2021/12/29 05:38:53;;;;;;;10.24;1.52;;;;;;;8.11;95.43;98549.03;2040926;79;21047;-73
2021/12/29 05:41:55;;;;;;;9.70;1.13;;;;;;;8.08;95.24;98545.63;2040065;79;20823;-73
2021/12/29 05:44:58;;;;;;;6.41;0.98;;;;;;;8.08;95.12;98541.31;2044303;79;20315;-73
2021/12/29 05:48:01;;;;;;;6.31;1.10;;;;;;;8.05;94.77;98536.13;2043598;76;23445;-74
2021/12/29 05:51:04;;;;;;;9.14;1.20;;;;;;;8.02;94.70;98535.31;2045295;79;21231;-74
2021/12/29 05:54:07;;;;;;;5.74;1.16;;;;;;;8.01;94.53;98544.81;2044631;79;20308;-73
2021/12/29 05:57:09;;;;;;;7.21;1.20;;;;;;;8.02;94.18;98543.06;2044963;79;20345;-73
2021/12/29 06:00:15;;;;;;;7.81;1.69;;;;;;;7.99;93.94;98543.97;2044866;79;20352;-73
2021/12/29 06:03:19;;;;;;;5.45;1.08;;;;;;;7.99;93.88;98556.88;2049871;79;20403;-73
2021/12/29 06:06:25;;;;;;;4.19;0.90;;;;;;;7.98;93.80;98560.34;2050874;79;20372;-74
2021/12/29 06:09:27;;;;;;;6.68;1.10;;;;;;;7.97;93.92;98574.13;2050522;79;20330;-73
2021/12/29 06:12:30;;;;;;;7.51;1.10;;;;;;;7.99;94.02;98585.31;2050496;79;20362;-73
2021/12/29 06:15:33;;;;;;;5.85;1.16;;;;;;;8.03;93.94;98587.00;2049099;76;28404;-75
2021/12/29 06:18:41;;;;;;;7.08;1.00;;;;;;;8.05;93.91;98587.00;2050037;79;20383;-74
2021/12/29 06:21:43;;;;;;;4.81;0.80;;;;;;;8.07;93.79;98590.41;2051821;79;20254;-73
2021/12/29 06:24:51;;;;;;;3.51;0.73;;;;;;;8.05;93.66;98579.22;2051039;79;20363;-73
2021/12/29 06:27:54;;;;;;;3.36;0.69;;;;;;;8.05;93.63;98600.78;2050412;79;20318;-73
2021/12/29 06:30:57;;;;;;;4.29;0.88;;;;;;;8.05;93.46;98605.09;2048748;79;22821;-73
2021/12/29 06:34:00;;;;;;;4.10;0.69;;;;;;;8.04;93.33;98603.38;2051368;79;20472;-73
2021/12/29 06:37:08;;;;;;;1.85;0.54;;;;;;;8.03;93.29;98614.59;2050825;79;20869;-73
2021/12/29 06:40:13;;;;;;;2.72;0.61;;;;;;;8.05;93.13;98621.47;2051490;79;20332;-73
2021/12/29 06:43:16;;;;;;;2.80;0.50;;;;;;;8.06;93.05;98615.41;2047089;79;20345;-73
2021/12/29 06:46:18;;;;;;;2.70;0.40;;;;;;;8.08;92.60;98608.53;2038525;76;22135;-73
2021/12/29 06:49:22;;;;;;;2.25;0.68;;;;;;;8.12;92.31;98612.81;2040540;79;20324;-73
2021/12/29 06:52:24;;;;;;;1.84;0.30;;;;;;;8.15;92.30;98609.34;2041557;79;20328;-73
2021/12/29 06:55:27;;;;;;;1.54;0.40;;;;;;;8.13;92.35;98614.53;2040932;79;20340;-73
2021/12/29 06:58:29;;;;;;;3.44;0.44;;;;;;;8.12;92.67;98623.16;2043839;79;20411;-72
2021/12/29 07:01:32;;;;;;;1.19;0.39;;;;;;;8.09;93.13;98620.59;2039292;76;22973;-73
2021/12/29 07:04:35;;;;;;;0.94;0.34;;;;;;;8.09;93.60;98627.50;2040833;79;20407;-73
2021/12/29 07:07:38;;;;;;;1.51;0.43;;;;;;;8.10;93.94;98629.22;2040618;79;20684;-73
2021/12/29 07:10:42;;;;;;;2.67;0.50;;;;;;;8.09;94.30;98635.25;2040243;79;20579;-73
2021/12/29 07:13:45;;;;;;;4.29;0.95;;;;;;;8.09;94.58;98636.09;2039282;79;21056;-73
2021/12/29 07:16:49;;;;;;;2.26;0.61;;;;;;;8.11;94.76;98641.25;2037275;76;21019;-73
2021/12/29 07:19:51;;;;;;;1.06;0.34;;;;;;;8.12;94.94;98655.91;2038460;79;20362;-73
2021/12/29 07:22:54;;;;;;;1.17;0.68;;;;;;;8.11;95.19;98659.38;2038314;79;20874;-72
2021/12/29 07:25:56;;;;;;;1.09;0.45;;;;;;;8.11;95.57;98667.97;2040110;79;20400;-73
2021/12/29 07:28:59;;;;;;;3.84;0.60;;;;;;;8.11;95.71;98667.97;2040448;79;20824;-74
2021/12/29 07:32:03;;;;;;;3.44;0.60;;;;;;;8.12;95.90;98671.41;2038088;76;20364;-73
2021/12/29 07:35:06;;;;;;;3.94;0.70;;;;;;;8.13;96.12;98678.31;2039817;79;20317;-73
2021/12/29 07:38:09;;;;;;;0.80;0.60;;;;;;;8.12;96.33;98674.88;2039758;79;20325;-74
2021/12/29 07:41:12;;;;;;;3.33;0.60;;;;;;;8.12;96.60;98680.03;2038325;79;20328;-73
2021/12/29 07:44:17;;;;;;;0.95;0.40;;;;;;;8.11;96.91;98685.22;2045409;79;20713;-73
2021/12/29 07:47:20;;;;;;;2.45;0.50;;;;;;;8.09;97.23;98680.06;2047626;79;21472;-73
2021/12/29 07:50:22;;;;;;;2.21;0.77;;;;;;;8.09;97.47;98686.97;2049027;79;20334;-73
2021/12/29 07:53:37;;;;;;;2.74;0.60;;;;;;;8.11;97.61;98687.81;2049182;79;21561;-72
2021/12/29 07:56:44;;;;;;;2.71;0.64;;;;;;;8.12;97.60;98694.69;2049341;79;20384;-72
2021/12/29 07:59:47;;;;;;;2.47;0.71;;;;;;;8.12;97.75;98689.53;2049569;79;20330;-73
2021/12/29 08:02:51;;;;;;;2.39;0.65;;;;;;;8.13;97.93;98691.22;2048635;76;20983;-73
2021/12/29 08:05:55;;;;;;;2.47;0.70;;;;;;;8.13;98.07;98686.91;2049814;79;20927;-73
2021/12/29 08:08:57;;;;;;;2.58;0.73;;;;;;;8.13;98.22;98683.47;2049916;79;20326;-73
2021/12/29 08:12:00;;;;;;;3.33;0.76;;;;;;;8.15;98.37;98687.75;2050204;79;20390;-73
2021/12/29 08:15:03;;;;;;;2.40;0.50;;;;;;;8.15;98.47;98690.34;2048173;79;20330;-73
2021/12/29 08:18:06;;;;;;;2.91;0.66;;;;;;;8.15;98.49;98676.56;2044447;76;23213;-74
2021/12/29 08:21:10;;;;;;;3.79;0.60;;;;;;;8.13;98.57;98691.22;2045607;79;20398;-73
2021/12/29 08:24:12;;;;;;;3.50;0.88;;;;;;;8.13;98.77;98693.81;2044354;79;20323;-73
2021/12/29 08:27:15;;;;;;;2.75;0.59;;;;;;;8.13;99.04;98692.09;2045276;79;20759;-73
2021/12/29 08:30:18;;;;;;;2.96;0.73;;;;;;;8.16;99.21;98697.25;2043551;77;20366;-74
2021/12/29 08:33:20;;;;;;;2.61;0.70;;;;;;;8.19;99.36;98702.38;2047074;79;20345;-75
2021/12/29 08:36:23;;;;;;;2.74;0.60;;;;;;;8.24;99.52;98711.84;2046011;79;20361;-74
2021/12/29 08:39:26;;;;;;;2.58;0.61;;;;;;;8.27;99.56;98704.09;2045899;79;20327;-75
2021/12/29 08:42:28;;;;;;;4.26;1.05;;;;;;;8.27;99.39;98720.47;2045451;79;20363;-74
2021/12/29 08:45:32;;;;;;;5.44;1.10;;;;;;;8.28;99.44;98714.41;2045165;76;23235;-74
2021/12/29 08:48:37;;;;;;;6.44;1.10;;;;;;;8.30;99.65;98714.41;2050199;79;21399;-73
2021/12/29 08:51:40;;;;;;;7.07;1.13;;;;;;;8.33;99.68;98719.56;2050246;79;20445;-73
2021/12/29 08:54:42;;;;;;;8.11;1.40;;;;;;;8.33;99.74;98715.25;2050909;79;20326;-74
2021/12/29 08:57:45;;;;;;;9.35;1.48;;;;;;;8.34;99.86;98706.66;2052336;79;20302;-73
2021/12/29 09:00:48;;;;;;;7.21;1.17;;;;;;;8.37;99.98;98709.22;2048342;76;21293;-73
2021/12/29 09:03:52;;;;;;;10.02;1.59;;;;;;;8.41;100.00;98713.47;2048593;79;20306;-73
2021/12/29 09:06:54;;;;;;;11.11;1.88;;;;;;;8.43;100.00;98713.47;2048722;79;20890;-73
2021/12/29 09:09:57;;;;;;;13.56;2.00;;;;;;;8.44;100.00;98710.91;2050714;79;21093;-73
2021/12/29 09:13:00;;;;;;;13.07;1.90;;;;;;;8.45;100.00;98709.19;2049587;79;20322;-73
2021/12/29 09:16:05;;;;;;;17.41;3.42;;;;;;;8.45;100.00;98707.44;2047389;76;21814;-73
2021/12/29 09:19:11;;;;;;;11.69;2.47;;;;;;;8.45;100.00;98716.94;2044880;79;20814;-72
2021/12/29 09:22:14;;;;;;;12.34;2.36;;;;;;;8.49;100.00;98718.63;2043506;79;20390;-73
2021/12/29 09:25:21;;;;;;;13.75;2.19;;;;;;;8.52;100.00;98730.69;2043045;79;20379;-73
2021/12/29 09:28:24;;;;;;;14.44;3.10;;;;;;;8.54;100.00;98731.53;2042981;79;20419;-72
2021/12/29 09:31:27;;;;;;;12.64;1.96;;;;;;;8.56;100.00;98727.19;2041210;77;20351;-73
2021/12/29 09:34:32;;;;;;;14.01;1.86;;;;;;;8.60;100.00;98731.47;2042404;79;21370;-72
2021/12/29 09:37:35;;;;;;;17.08;2.30;;;;;;;8.62;100.00;98732.34;2041676;79;20419;-72
2021/12/29 09:40:39;;;;;;;8.91;1.73;;;;;;;8.64;100.00;98736.63;2043587;79;20335;-72
2021/12/29 09:43:43;;;;;;;15.71;2.22;;;;;;;8.65;100.00;98738.34;2043326;79;20342;-72
2021/12/29 09:46:48;;;;;;;17.06;2.14;;;;;;;8.64;100.00;98736.63;2041515;77;21756;-73
2021/12/29 09:49:51;;;;;;;12.39;1.96;;;;;;;8.65;100.00;98730.59;2042989;79;20303;-73
2021/12/29 09:52:55;;;;;;;10.46;2.20;;;;;;;8.68;100.00;98734.88;2043750;79;20399;-72
2021/12/29 09:55:57;;;;;;;13.52;1.99;;;;;;;8.69;100.00;98728.81;2043172;79;20372;-73
2021/12/29 09:59:00;;;;;;;12.49;2.04;;;;;;;8.70;100.00;98727.94;2044502;79;20311;-72
2021/12/29 10:02:04;;;;;;;19.24;2.84;;;;;;;8.72;100.00;98718.44;2038368;77;21201;-72
2021/12/29 10:05:07;;;;;;;18.00;1.94;;;;;;;8.75;100.00;98716.69;2043767;79;20350;-73
2021/12/29 10:08:20;;;;;;;12.86;2.56;;;;;;;8.75;99.87;98716.69;2044503;79;21502;-72
2021/12/29 10:11:32;;;;;;;8.70;1.74;;;;;;;8.74;99.90;98714.97;2044935;79;20387;-73
2021/12/29 10:14:35;;;;;;;10.52;2.56;;;;;;;8.77;99.95;98712.34;2044973;79;20339;-72
2021/12/29 10:17:38;;;;;;;15.44;1.98;;;;;;;8.80;99.71;98711.50;2043362;76;21008;-73
2021/12/29 10:20:54;;;;;;;14.39;2.84;;;;;;;8.83;99.73;98701.09;2044648;79;20958;-72
2021/12/29 10:23:58;;;;;;;10.01;1.90;;;;;;;8.85;99.47;98689.00;2043599;79;21569;-72
2021/12/29 10:27:18;;;;;;;15.66;2.95;;;;;;;8.88;99.47;98693.28;2044090;79;20348;-73
2021/12/29 10:30:28;;;;;;;8.32;1.71;;;;;;;8.89;99.36;98689.84;2042493;79;22894;-72
2021/12/29 10:33:40;;;;;;;12.24;1.90;;;;;;;8.90;99.17;98679.47;2049872;79;20332;-73
2021/12/29 10:36:51;;;;;;;9.40;1.79;;;;;;;8.94;99.19;98688.06;2049503;79;20299;-72
2021/12/29 10:39:56;;;;;;;10.90;2.21;;;;;;;8.97;99.07;98695.78;2052063;78;20318;-72
2021/12/29 10:43:01;;;;;;;9.73;1.99;;;;;;;8.98;98.97;98700.13;2048270;79;20430;-73
2021/12/29 10:46:04;;;;;;;9.63;1.92;;;;;;;9.00;99.11;98681.09;2040061;76;20991;-72
2021/12/29 10:49:09;;;;;;;8.81;1.86;;;;;;;9.03;99.02;98691.44;2040493;79;20301;-72
2021/12/29 10:52:12;;;;;;;10.91;2.30;;;;;;;9.07;98.96;98682.75;2040454;79;20343;-72
2021/12/29 10:55:35;;;;;;;10.44;2.08;;;;;;;9.10;98.90;98676.69;2039907;79;20449;-72
2021/12/29 10:58:39;;;;;;;8.99;1.40;;;;;;;9.13;98.66;98684.41;2039841;79;20354;-72
2021/12/29 11:01:42;;;;;;;9.60;1.30;;;;;;;9.14;98.41;98695.63;2037233;76;22315;-72
2021/12/29 11:04:54;;;;;;;7.93;1.27;;;;;;;9.16;98.41;98694.75;2037432;79;20185;-72
2021/12/29 11:08:04;;;;;;;5.81;1.09;;;;;;;9.14;98.05;98699.06;2037584;79;20946;-72
2021/12/29 11:11:07;;;;;;;5.26;1.19;;;;;;;9.15;98.02;98699.94;2040777;79;20329;-72
2021/12/29 11:14:21;;;;;;;5.91;1.00;;;;;;;9.13;97.76;98697.34;2037604;79;21275;-72
2021/12/29 11:17:25;;;;;;;6.16;1.92;;;;;;;9.15;97.97;98681.81;2032685;76;21529;-72
2021/12/29 11:20:28;;;;;;;7.22;1.10;;;;;;;9.14;97.58;98687.84;2032414;79;20313;-74
2021/12/29 11:23:31;;;;;;;7.55;1.00;;;;;;;9.13;97.59;98687.00;2032057;79;20405;-72
2021/12/29 11:26:34;;;;;;;7.32;1.42;;;;;;;9.12;97.62;98695.66;2032160;79;20343;-72
2021/12/29 11:29:55;;;;;;;6.54;1.49;;;;;;;9.07;97.14;98700.03;2033157;79;20322;-72
2021/12/29 11:33:08;;;;;;;4.56;0.89;;;;;;;9.04;97.15;98700.91;2034965;76;22822;-73
2021/12/29 11:36:21;;;;;;;4.40;1.00;;;;;;;9.01;97.03;98692.31;2032661;79;20306;-72
2021/12/29 11:39:24;;;;;;;6.28;1.30;;;;;;;9.00;97.34;98673.34;2032845;79;20415;-72
2021/12/29 11:42:27;;;;;;;3.89;1.00;;;;;;;9.03;97.43;98680.22;2032825;79;21258;-73
2021/12/29 11:45:30;;;;;;;6.34;1.10;;;;;;;9.02;97.36;98675.91;2040691;76;20970;-72
2021/12/29 11:48:33;;;;;;;5.63;1.02;;;;;;;9.03;97.38;98680.22;2043474;79;20353;-71
2021/12/29 11:51:56;;;;;;;4.96;0.94;;;;;;;9.03;97.40;98699.19;2043974;79;20307;-72
2021/12/29 11:55:04;;;;;;;5.99;1.40;;;;;;;9.06;97.26;98703.47;2043669;79;20327;-73
2021/12/29 11:58:10;;;;;;;8.40;1.46;;;;;;;9.06;97.50;98696.56;2043202;79;20353;-72
2021/12/29 12:01:24;;;;;;;5.30;1.19;;;;;;;9.09;97.21;98698.28;2043763;76;21286;-73
2021/12/29 12:04:27;;;;;;;3.44;1.00;;;;;;;9.09;97.13;98683.59;2049244;79;20348;-72
2021/12/29 12:07:30;;;;;;;3.61;0.80;;;;;;;9.12;97.15;98674.94;2048519;79;21350;-72
2021/12/29 12:10:36;;;;;;;4.69;1.39;;;;;;;9.20;97.22;98670.53;2049388;79;21156;-72
2021/12/29 12:13:43;;;;;;;2.72;1.64;;;;;;;9.26;97.01;98679.97;2049913;79;20441;-72
2021/12/29 12:16:58;;;;;;;3.31;0.93;;;;;;;9.23;96.64;98686.03;2049635;77;22198;-72
2021/12/29 12:20:17;;;;;;;3.41;0.71;;;;;;;9.25;96.50;98693.78;2050929;79;20442;-72
2021/12/29 12:23:29;;;;;;;2.92;0.76;;;;;;;9.24;96.11;98689.50;2051032;79;20405;-72
2021/12/29 12:26:31;;;;;;;3.08;0.89;;;;;;;9.26;96.08;98692.91;2048583;79;20211;-73
2021/12/29 12:29:37;;;;;;;2.06;0.59;;;;;;;9.20;95.76;98673.13;2049039;79;20187;-73
2021/12/29 12:32:46;;;;;;;4.29;0.75;;;;;;;9.21;95.95;98672.25;2042644;76;22025;-73
2021/12/29 12:35:59;;;;;;;2.45;0.55;;;;;;;9.23;95.95;98672.25;2044159;79;20329;-72
2021/12/29 12:39:21;;;;;;;2.59;0.55;;;;;;;9.24;96.10;98674.81;2044224;79;20299;-73
2021/12/29 12:42:25;;;;;;;1.92;0.75;;;;;;;9.27;96.31;98677.34;2044460;79;20463;-72
2021/12/29 12:45:33;;;;;;;3.08;0.79;;;;;;;9.29;96.34;98672.16;2043029;77;20420;-72
2021/12/29 12:48:36;;;;;;;2.25;0.70;;;;;;;9.35;96.55;98672.13;2044877;79;20502;-72
2021/12/29 12:51:40;;;;;;;2.71;0.66;;;;;;;9.38;96.59;98664.31;2045224;79;20239;-72
2021/12/29 12:54:54;;;;;;;2.14;0.84;;;;;;;9.41;96.55;98668.59;2044703;79;20331;-74
2021/12/29 12:58:08;;;;;;;2.09;0.70;;;;;;;9.39;96.36;98671.19;2044722;79;20440;-72
2021/12/29 13:01:25;;;;;;;2.03;1.44;;;;;;;9.39;96.45;98666.88;2042955;77;20467;-73
2021/12/29 13:04:28;;;;;;;4.50;1.49;;;;;;;9.36;96.24;98672.09;2044227;79;20204;-72
2021/12/29 13:07:32;;;;;;;2.66;1.14;;;;;;;9.36;96.26;98671.25;2044607;79;20343;-72
2021/12/29 13:10:46;;;;;;;5.14;1.48;;;;;;;9.37;96.33;98670.38;2043979;79;20379;-72
2021/12/29 13:13:52;;;;;;;2.95;1.77;;;;;;;9.36;96.31;98669.50;2043964;79;20465;-72
2021/12/29 13:16:55;;;;;;;3.29;1.63;;;;;;;9.35;96.31;98669.53;2042303;77;20208;-71
2021/12/29 13:19:59;;;;;;;3.03;1.69;;;;;;;9.32;96.63;98672.13;2040146;79;20340;-72
2021/12/29 13:23:02;;;;;;;2.55;1.99;;;;;;;9.36;96.89;98663.47;2045231;79;20363;-72
2021/12/29 13:26:08;;;;;;;3.80;2.70;;;;;;;9.38;97.01;98664.31;2044112;79;20373;-72
2021/12/29 13:29:19;;;;;;;4.35;1.95;;;;;;;9.39;97.03;98660.84;2044137;79;20682;-72
2021/12/29 13:32:22;;;;;;;2.88;1.56;;;;;;;9.38;96.91;98661.72;2041905;79;20331;-72
2021/12/29 13:35:31;;;;;;;4.22;1.99;;;;;;;9.37;97.00;98662.59;2043465;79;20528;-72
2021/12/29 13:38:36;;;;;;;3.72;1.42;;;;;;;9.35;97.21;98653.97;2043381;79;20172;-72
2021/12/29 13:41:45;;;;;;;3.08;1.63;;;;;;;9.36;97.19;98666.91;2043184;79;20816;-72
2021/12/29 13:44:47;;;;;;;4.15;1.56;;;;;;;9.36;97.38;98674.69;2043365;79;20315;-72
2021/12/29 13:47:50;;;;;;;2.75;1.40;;;;;;;9.37;97.38;98670.38;2037104;77;21086;-72
2021/12/29 13:51:14;;;;;;;3.92;1.58;;;;;;;9.36;97.35;98664.31;2043240;79;20327;-72
2021/12/29 13:54:19;;;;;;;2.55;1.50;;;;;;;9.33;97.52;98666.91;2046694;79;20436;-72
2021/12/29 13:57:22;;;;;;;4.71;1.92;;;;;;;9.32;97.58;98656.56;2043392;79;20407;-72
2021/12/29 14:00:25;;;;;;;4.13;1.60;;;;;;;9.34;97.71;98644.50;2041727;76;20349;-71
2021/12/29 14:03:30;;;;;;;4.47;1.63;;;;;;;9.34;97.79;98658.31;2042965;79;20311;-73
2021/12/29 14:06:32;;;;;;;3.66;1.56;;;;;;;9.33;97.96;98666.06;2043654;79;20327;-72
2021/12/29 14:09:38;;;;;;;4.69;2.65;;;;;;;9.34;98.03;98660.03;2043036;79;20408;-73
2021/12/29 14:12:41;;;;;;;4.04;1.34;;;;;;;9.34;98.11;98667.81;2044298;79;21426;-71
2021/12/29 14:15:45;;;;;;;4.82;3.22;;;;;;;9.33;98.15;98648.78;2042475;76;22007;-73
2021/12/29 14:18:54;;;;;;;3.39;2.69;;;;;;;9.36;98.26;98658.28;2048044;79;20425;-72
2021/12/29 14:21:57;;;;;;;;;;;;;;;9.34;98.23;98673.84;2050033;79;21055;-72
2021/12/29 14:25:11;;;;;;;3.59;1.48;;;;;;;9.34;98.48;98667.81;2045087;79;20446;-72
2021/12/29 14:28:19;;;;;;;1.50;1.04;;;;;;;9.36;98.53;98666.06;2047609;79;20196;-71
2021/12/29 14:31:33;;;;;;;1.58;1.16;;;;;;;9.36;98.60;98658.28;2047202;76;22166;-72
2021/12/29 14:34:43;;;;;;;2.99;1.70;;;;;;;9.35;98.66;98659.16;2047479;79;20532;-71
2021/12/29 14:37:46;;;;;;;2.14;1.51;;;;;;;9.33;98.79;98658.28;2047792;79;20421;-72
2021/12/29 14:40:49;;;;;;;2.65;1.73;;;;;;;9.33;99.04;98655.69;2046750;79;20314;-71
2021/12/29 14:44:00;;;;;;;2.36;1.19;;;;;;;9.35;99.17;98654.84;2047324;79;20410;-72
2021/12/29 14:47:06;;;;;;;2.34;1.00;;;;;;;9.34;99.11;98652.28;2046162;76;22263;-71
2021/12/29 14:50:13;;;;;;;3.41;0.90;;;;;;;9.35;99.15;98641.03;2046283;79;20287;-71